Time;durP1;ratioP1;P1;durP2;ratioP2;P2;SDS_P1;SDS_P2;PMS_P1;PMS_P2;Temp;Humidity;BMP_temperature;BMP_pressure;BME280_temperature;BME280_humidity;BME280_pressure;Samples;Min_cycle;Max_cycle;Signal;HPM_P1;HPM_P2
2021/09/26 00:00:31;;;;;;;;;;;14.20;99.90;;;;;;5107615;28;19968;-80
2021/09/26 00:02:57;;;;;;;;;;;14.20;99.90;;;;;;5106572;28;20417;-81
2021/09/26 00:05:22;;;;;;;;;;;14.20;99.90;;;;;;5106521;28;19911;-80
2021/09/26 00:07:48;;;;;;;;;;;14.20;99.90;;;;;;5107906;28;19961;-81
2021/09/26 00:10:14;;;;;;;;;;;14.20;99.90;;;;;;5107392;28;19947;-81
2021/09/26 00:12:40;;;;;;;;;;;14.20;99.90;;;;;;5107651;28;19939;-80
2021/09/26 00:15:08;;;;;;;;;;;14.20;99.90;;;;;;5107583;28;20443;-81
2021/09/26 00:17:34;;;;;;;;;;;14.20;99.90;;;;;;5107715;28;20151;-81
2021/09/26 00:19:59;;;;;;;;;;;14.20;99.90;;;;;;5106594;28;19951;-79
2021/09/26 00:22:25;;;;;;;;;;;14.20;99.90;;;;;;5106187;28;20082;-80
2021/09/26 00:24:50;;;;;;;;;;;14.20;99.90;;;;;;5106899;28;20357;-80
2021/09/26 00:27:16;;;;;;;;;;;14.20;99.90;;;;;;5113739;28;20288;-80
2021/09/26 00:29:42;;;;;;;;;;;14.30;99.90;;;;;;5114017;28;19907;-79
2021/09/26 00:32:07;;;;;;;;;;;14.30;99.90;;;;;;5114478;28;19927;-80
2021/09/26 00:34:33;;;;;;;;;;;14.30;99.90;;;;;;5114393;28;20372;-80
2021/09/26 00:36:59;;;;;;;;;;;14.20;99.90;;;;;;5113884;28;20372;-79
2021/09/26 00:39:24;;;;;;;;;;;14.20;99.90;;;;;;5114237;28;19992;-80
2021/09/26 00:41:50;;;;;;;;;;;14.10;99.90;;;;;;5114048;27;19908;-79
2021/09/26 00:44:16;;;;;;;;;;;14.10;99.90;;;;;;5114067;28;19957;-80
2021/09/26 00:46:42;;;;;;;;;;;14.00;99.90;;;;;;5113926;28;19907;-80
2021/09/26 00:49:07;;;;;;;;;;;14.00;99.90;;;;;;5114313;28;20455;-81
2021/09/26 00:51:33;;;;;;;;;;;14.00;99.90;;;;;;5113854;28;19915;-79
2021/09/26 00:53:58;;;;;;;;;;;14.00;99.90;;;;;;5113950;28;19965;-80
2021/09/26 00:56:24;;;;;;;;;;;14.00;99.90;;;;;;5112781;28;19999;-80
2021/09/26 00:58:50;;;;;;;;;;;14.00;99.90;;;;;;5113701;28;20577;-80
2021/09/26 01:01:16;;;;;;;;;;;14.00;99.90;;;;;;5114281;28;19903;-80
2021/09/26 01:03:41;;;;;;;;;;;13.90;99.90;;;;;;5113944;28;19918;-80
2021/09/26 01:06:07;;;;;;;;;;;14.00;99.90;;;;;;5113755;28;19914;-80
2021/09/26 01:08:32;;;;;;;;;;;14.00;99.90;;;;;;5114060;28;19914;-79
2021/09/26 01:11:12;;;;;;;;;;;14.10;99.90;;;;;;5113586;28;20368;-80
2021/09/26 01:13:45;;;;;;;;;;;14.10;99.90;;;;;;5116828;28;20370;-79
2021/09/26 01:16:14;;;;;;;;;;;14.20;99.90;;;;;;5113612;28;19951;-80
2021/09/26 01:18:45;;;;;;;;;;;14.30;99.90;;;;;;5113902;28;19938;-80
2021/09/26 01:21:22;;;;;;;;;;;14.40;99.90;;;;;;5113453;28;19937;-81
2021/09/26 01:23:48;;;;;;;;;;;14.40;99.90;;;;;;5113801;28;19954;-80
2021/09/26 01:26:16;;;;;;;;;;;14.40;99.90;;;;;;5113212;28;19966;-81
2021/09/26 01:29:01;;;;;;;;;;;14.40;99.90;;;;;;5113059;28;19908;-80
2021/09/26 01:31:36;;;;;;;;;;;14.40;99.90;;;;;;5113802;28;20452;-80
2021/09/26 01:34:10;;;;;;;;;;;14.40;99.90;;;;;;5113475;28;19973;-81
2021/09/26 01:36:38;;;;;;;;;;;14.40;99.90;;;;;;5114161;28;20314;-80
2021/09/26 01:39:06;;;;;;;;;;;14.40;99.90;;;;;;5109352;28;20606;-81
2021/09/26 01:41:31;;;;;;;;;;;14.40;99.90;;;;;;5110211;28;19914;-80
2021/09/26 01:43:57;;;;;;;;;;;14.40;99.90;;;;;;5109048;28;20664;-78
2021/09/26 01:46:26;;;;;;;;;;;14.40;99.90;;;;;;5110308;28;19919;-80
2021/09/26 01:48:51;;;;;;;;;;;14.40;99.90;;;;;;5109225;28;19908;-79
2021/09/26 01:51:18;;;;;;;;;;;14.40;99.90;;;;;;5109832;28;20348;-80
2021/09/26 01:53:45;;;;;;;;;;;14.40;99.90;;;;;;5108389;28;20329;-80
2021/09/26 01:56:12;;;;;;;;;;;14.40;99.90;;;;;;5110101;28;19947;-81
2021/09/26 01:58:38;;;;;;;;;;;14.40;99.90;;;;;;5109902;28;19908;-80
2021/09/26 02:01:04;;;;;;;;;;;14.40;99.90;;;;;;5110136;28;19912;-80
2021/09/26 02:03:30;;;;;;;;;;;14.40;99.90;;;;;;5110200;28;19918;-80
2021/09/26 02:05:57;;;;;;;;;;;14.40;99.90;;;;;;5107976;28;19912;-80
2021/09/26 02:08:22;;;;;;;;;;;14.40;99.90;;;;;;5109938;28;19915;-80
2021/09/26 02:10:48;;;;;;;;;;;14.30;99.90;;;;;;5109477;28;19904;-80
2021/09/26 02:13:14;;;;;;;;;;;14.30;99.90;;;;;;5110291;28;19912;-80
2021/09/26 02:15:42;;;;;;;;;;;14.40;99.90;;;;;;5109504;28;19904;-80
2021/09/26 02:18:08;;;;;;;;;;;14.40;99.90;;;;;;5108663;28;19926;-80
2021/09/26 02:20:34;;;;;;;;;;;14.40;99.90;;;;;;5109770;28;19919;-79
2021/09/26 02:23:01;;;;;;;;;;;14.40;99.90;;;;;;5109526;28;20423;-80
2021/09/26 02:25:27;;;;;;;;;;;14.40;99.90;;;;;;5107732;28;20047;-79
2021/09/26 02:27:53;;;;;;;;;;;14.30;99.90;;;;;;5109767;28;19908;-80
2021/09/26 02:30:19;;;;;;;;;;;14.30;99.90;;;;;;5107887;28;19908;-80
2021/09/26 02:32:45;;;;;;;;;;;14.30;99.90;;;;;;5109987;28;19919;-81
2021/09/26 02:35:11;;;;;;;;;;;14.30;99.90;;;;;;5109720;28;20280;-81
2021/09/26 02:37:37;;;;;;;;;;;14.20;99.90;;;;;;5109408;28;19904;-78
2021/09/26 02:40:03;;;;;;;;;;;14.10;99.90;;;;;;5108993;28;19914;-79
2021/09/26 02:42:41;;;;;;;;;;;14.20;99.90;;;;;;5109493;28;19914;-81
2021/09/26 02:45:06;;;;;;;;;;;14.20;99.90;;;;;;5108964;28;20363;-79
2021/09/26 02:47:48;;;;;;;;;;;14.20;99.90;;;;;;5107935;28;20009;-81
2021/09/26 02:50:13;;;;;;;;;;;14.10;99.90;;;;;;5107891;28;19915;-80
2021/09/26 02:52:40;;;;;;;;;;;14.10;99.90;;;;;;5107709;28;19907;-81
2021/09/26 02:55:06;;;;;;;;;;;14.00;99.90;;;;;;5107488;28;19903;-79
2021/09/26 02:57:34;;;;;;;;;;;14.00;99.90;;;;;;5107364;28;20002;-80
2021/09/26 03:00:00;;;;;;;;;;;14.00;99.90;;;;;;5108424;28;19903;-81
2021/09/26 03:02:26;;;;;;;;;;;14.00;99.90;;;;;;5108124;28;20450;-79
2021/09/26 03:04:52;;;;;;;;;;;13.90;99.90;;;;;;5107257;28;19919;-81
2021/09/26 03:07:17;;;;;;;;;;;13.80;99.90;;;;;;5108959;28;19904;-81
2021/09/26 03:09:43;;;;;;;;;;;13.80;99.90;;;;;;5108553;28;20393;-80
2021/09/26 03:12:16;;;;;;;;;;;13.80;99.90;;;;;;5108493;28;19998;-81
2021/09/26 03:14:41;;;;;;;;;;;13.90;99.90;;;;;;5108499;28;19907;-81
2021/09/26 03:17:07;;;;;;;;;;;13.90;99.90;;;;;;5108818;28;19908;-81
2021/09/26 03:19:34;;;;;;;;;;;13.90;99.90;;;;;;5107425;28;19911;-80
2021/09/26 03:22:00;;;;;;;;;;;14.00;99.90;;;;;;5108340;28;19915;-81
2021/09/26 03:24:27;;;;;;;;;;;13.90;99.90;;;;;;5107894;28;19912;-80
2021/09/26 03:26:53;;;;;;;;;;;13.90;99.90;;;;;;5108759;28;19955;-81
2021/09/26 03:29:19;;;;;;;;;;;13.90;99.90;;;;;;5108338;28;19931;-80
2021/09/26 03:31:44;;;;;;;;;;;13.90;99.90;;;;;;5106745;28;20002;-80
2021/09/26 03:34:10;;;;;;;;;;;13.90;99.90;;;;;;5107129;28;19908;-79
2021/09/26 03:36:35;;;;;;;;;;;13.90;99.90;;;;;;5107165;28;19907;-80
2021/09/26 03:39:01;;;;;;;;;;;13.90;99.90;;;;;;5108021;28;19908;-80
2021/09/26 03:41:26;;;;;;;;;;;14.00;99.90;;;;;;5108092;28;20413;-80
2021/09/26 03:43:52;;;;;;;;;;;13.90;99.90;;;;;;5108050;28;20300;-80
2021/09/26 03:46:17;;;;;;;;;;;13.90;99.90;;;;;;5108162;28;20006;-81
2021/09/26 03:48:43;;;;;;;;;;;13.80;99.90;;;;;;5108200;28;19923;-80
2021/09/26 03:51:08;;;;;;;;;;;13.80;99.90;;;;;;5107924;28;20700;-80
2021/09/26 03:53:34;;;;;;;;;;;13.80;99.90;;;;;;5107590;28;19919;-81
2021/09/26 03:55:59;;;;;;;;;;;13.80;99.90;;;;;;5107913;28;20030;-80
2021/09/26 03:58:25;;;;;;;;;;;13.70;99.90;;;;;;5106803;28;20434;-80
2021/09/26 04:00:50;;;;;;;;;;;13.70;99.90;;;;;;5107139;28;20308;-79
2021/09/26 04:03:16;;;;;;;;;;;13.60;99.90;;;;;;5106874;28;20427;-79
2021/09/26 04:05:41;;;;;;;;;;;13.50;99.90;;;;;;5107743;28;19935;-80
2021/09/26 04:08:07;;;;;;;;;;;13.50;99.90;;;;;;5106694;28;19908;-80
2021/09/26 04:10:32;;;;;;;;;;;13.50;99.90;;;;;;5108071;28;20002;-80
2021/09/26 04:12:58;;;;;;;;;;;13.50;99.90;;;;;;5108009;28;19994;-80
2021/09/26 04:15:23;;;;;;;;;;;13.50;99.90;;;;;;5107833;28;19926;-80
2021/09/26 04:17:49;;;;;;;;;;;13.50;99.90;;;;;;5105563;28;19914;-80
2021/09/26 04:20:14;;;;;;;;;;;13.50;99.90;;;;;;5107554;28;19931;-80
2021/09/26 04:22:40;;;;;;;;;;;13.50;99.90;;;;;;5107643;28;19912;-80
2021/09/26 04:25:06;;;;;;;;;;;13.50;99.90;;;;;;5107231;28;19984;-79
2021/09/26 04:27:31;;;;;;;;;;;13.50;99.90;;;;;;5105592;28;19908;-80
2021/09/26 04:29:57;;;;;;;;;;;13.40;99.90;;;;;;5106776;28;19950;-79
2021/09/26 04:32:22;;;;;;;;;;;13.40;99.90;;;;;;5107378;28;19998;-80
2021/09/26 04:34:48;;;;;;;;;;;13.40;99.90;;;;;;5106005;28;19926;-80
2021/09/26 04:37:14;;;;;;;;;;;13.40;99.90;;;;;;5106782;28;19904;-81
2021/09/26 04:39:39;;;;;;;;;;;13.50;99.90;;;;;;5107184;28;19988;-79
2021/09/26 04:42:06;;;;;;;;;;;13.50;99.90;;;;;;5107557;28;19983;-80
2021/09/26 04:44:32;;;;;;;;;;;13.60;99.90;;;;;;5107481;28;19922;-80
2021/09/26 04:46:58;;;;;;;;;;;13.70;99.90;;;;;;5107621;28;19907;-79
2021/09/26 04:49:28;;;;;;;;;;;13.70;99.90;;;;;;5106517;28;19908;-80
2021/09/26 04:51:57;;;;;;;;;;;13.70;99.90;;;;;;5106478;28;20435;-80
2021/09/26 04:54:22;;;;;;;;;;;13.70;99.90;;;;;;5106866;28;20010;-81
2021/09/26 04:56:48;;;;;;;;;;;13.80;99.90;;;;;;5107835;28;20007;-81
2021/09/26 04:59:15;;;;;;;;;;;13.80;99.90;;;;;;5105577;28;20451;-80
2021/09/26 05:01:40;;;;;;;;;;;13.80;99.90;;;;;;5106763;28;19907;-81
2021/09/26 05:04:06;;;;;;;;;;;13.80;99.90;;;;;;5106927;28;19911;-79
2021/09/26 05:06:32;;;;;;;;;;;13.80;99.90;;;;;;5106322;28;20440;-80
2021/09/26 05:08:57;;;;;;;;;;;13.90;99.90;;;;;;5105375;28;19908;-82
2021/09/26 05:11:23;;;;;;;;;;;14.00;99.90;;;;;;5105909;28;19953;-79
2021/09/26 05:13:48;;;;;;;;;;;14.10;99.90;;;;;;5108274;28;19911;-79
2021/09/26 05:16:14;;;;;;;;;;;14.10;99.90;;;;;;5109145;28;19912;-80
2021/09/26 05:18:40;;;;;;;;;;;14.10;99.90;;;;;;5109629;28;19907;-79
2021/09/26 05:21:05;;;;;;;;;;;14.20;99.90;;;;;;5110650;28;20315;-80
2021/09/26 05:23:31;;;;;;;;;;;14.20;99.90;;;;;;5109141;28;19914;-80
2021/09/26 05:25:56;;;;;;;;;;;14.40;99.90;;;;;;5109183;28;19950;-79
2021/09/26 05:28:22;;;;;;;;;;;14.50;99.90;;;;;;5110467;28;20264;-79
2021/09/26 05:30:47;;;;;;;;;;;14.60;99.90;;;;;;5108856;28;19907;-79
2021/09/26 05:33:13;;;;;;;;;;;14.80;99.90;;;;;;5109212;28;20359;-79
2021/09/26 05:35:39;;;;;;;;;;;14.90;99.90;;;;;;5109907;28;19907;-80
2021/09/26 05:38:05;;;;;;;;;;;15.20;99.90;;;;;;5108671;28;19908;-79
2021/09/26 05:40:30;;;;;;;;;;;15.30;99.90;;;;;;5109957;28;19935;-79
2021/09/26 05:42:56;;;;;;;;;;;15.50;99.90;;;;;;5109179;28;19904;-80
2021/09/26 05:45:21;;;;;;;;;;;15.60;99.90;;;;;;5108142;28;19922;-78
2021/09/26 05:47:47;;;;;;;;;;;15.80;99.90;;;;;;5109968;28;19914;-80
2021/09/26 05:50:12;;;;;;;;;;;15.90;99.90;;;;;;5110116;28;19907;-79
2021/09/26 05:52:38;;;;;;;;;;;16.10;99.90;;;;;;5107922;28;20403;-78
2021/09/26 05:55:03;;;;;;;;;;;16.20;99.90;;;;;;5110177;28;19903;-79
2021/09/26 05:57:29;;;;;;;;;;;16.30;99.90;;;;;;5109625;28;19903;-79
2021/09/26 05:59:55;;;;;;;;;;;16.40;99.90;;;;;;5109836;28;19942;-81
2021/09/26 06:02:23;;;;;;;;;;;16.50;99.90;;;;;;5108534;28;20061;-80
2021/09/26 06:04:52;;;;;;;;;;;16.60;99.90;;;;;;5109439;28;19956;-81
2021/09/26 06:07:17;;;;;;;;;;;16.70;99.90;;;;;;5108985;28;19904;-80
2021/09/26 06:09:43;;;;;;;;;;;16.80;99.90;;;;;;5109413;28;19931;-79
2021/09/26 06:12:10;;;;;;;;;;;16.90;99.90;;;;;;5107905;28;19904;-78
2021/09/26 06:14:35;;;;;;;;;;;16.90;99.90;;;;;;5109327;28;19904;-78
2021/09/26 06:17:01;;;;;;;;;;;17.10;99.90;;;;;;5109548;28;19914;-79
2021/09/26 06:19:26;;;;;;;;;;;17.20;99.90;;;;;;5109257;28;19915;-78
2021/09/26 06:21:52;;;;;;;;;;;17.40;99.90;;;;;;5108153;28;19922;-78
2021/09/26 06:24:17;;;;;;;;;;;17.90;99.90;;;;;;5106989;28;19908;-78
2021/09/26 06:26:43;;;;;;;;;;;18.50;99.90;;;;;;5107453;28;20627;-78
2021/09/26 06:29:08;;;;;;;;;;;19.30;97.60;;;;;;5108930;28;19946;-79
2021/09/26 06:31:34;;;;;;;;;;;20.10;95.60;;;;;;5109251;28;20053;-78
2021/09/26 06:34:00;;;;;;;;;;;20.80;94.00;;;;;;5107462;28;19904;-80
2021/09/26 06:36:25;;;;;;;;;;;21.70;91.50;;;;;;5108420;28;20454;-80
2021/09/26 06:38:51;;;;;;;;;;;22.30;87.80;;;;;;5107179;28;19910;-80
2021/09/26 06:41:18;;;;;;;;;;;23.00;83.30;;;;;;5109257;28;19907;-81
2021/09/26 06:43:43;;;;;;;;;;;23.50;78.30;;;;;;5108357;28;19907;-81
2021/09/26 06:46:09;;;;;;;;;;;23.70;76.00;;;;;;5107360;28;19918;-81
2021/09/26 06:48:35;;;;;;;;;;;23.90;76.10;;;;;;5108763;28;19911;-81
2021/09/26 06:51:00;;;;;;;;;;;23.90;74.40;;;;;;5106967;28;20292;-81
2021/09/26 06:53:25;;;;;;;;;;;24.20;72.10;;;;;;5106844;28;19907;-80
2021/09/26 06:55:51;;;;;;;;;;;24.40;70.80;;;;;;5106904;28;19904;-81
2021/09/26 06:58:17;;;;;;;;;;;24.50;70.90;;;;;;5108643;28;19992;-80
2021/09/26 07:00:42;;;;;;;;;;;25.00;69.50;;;;;;5108160;28;20014;-81
2021/09/26 07:03:08;;;;;;;;;;;25.30;69.00;;;;;;5108832;28;19910;-80
2021/09/26 07:05:33;;;;;;;;;;;25.60;68.40;;;;;;5106833;28;19938;-79
2021/09/26 07:07:58;;;;;;;;;;;26.10;66.70;;;;;;5106475;28;20425;-78
2021/09/26 07:10:24;;;;;;;;;;;26.60;65.40;;;;;;5107519;28;19915;-78
2021/09/26 07:12:50;;;;;;;;;;;27.00;64.00;;;;;;5106625;28;19969;-79
2021/09/26 07:15:15;;;;;;;;;;;27.40;61.90;;;;;;5108569;28;19911;-80
2021/09/26 07:17:41;;;;;;;;;;;27.70;59.70;;;;;;5106550;28;20350;-79
2021/09/26 07:20:07;;;;;;;;;;;27.90;58.90;;;;;;5107786;28;20459;-80
2021/09/26 07:22:32;;;;;;;;;;;27.80;57.90;;;;;;5106742;28;19911;-79
2021/09/26 07:24:58;;;;;;;;;;;27.70;57.50;;;;;;5108349;28;19942;-79
2021/09/26 07:27:24;;;;;;;;;;;27.40;58.60;;;;;;5106277;28;19960;-79
2021/09/26 07:29:50;;;;;;;;;;;27.50;57.80;;;;;;5107734;28;19904;-80
2021/09/26 07:32:16;;;;;;;;;;;27.60;58.30;;;;;;5108168;28;19925;-79
2021/09/26 07:34:42;;;;;;;;;;;27.90;57.50;;;;;;5107882;28;19907;-79
2021/09/26 07:37:08;;;;;;;;;;;28.20;56.00;;;;;;5105456;28;19914;-79
2021/09/26 07:39:33;;;;;;;;;;;28.50;54.80;;;;;;5107899;28;19911;-79
2021/09/26 07:41:59;;;;;;;;;;;28.90;53.90;;;;;;5107906;28;20311;-79
2021/09/26 07:44:25;;;;;;;;;;;28.80;52.80;;;;;;5105744;28;19923;-78
2021/09/26 07:46:50;;;;;;;;;;;28.60;53.90;;;;;;5107976;28;19960;-78
2021/09/26 07:49:16;;;;;;;;;;;28.20;54.90;;;;;;5107732;28;19912;-77
2021/09/26 07:51:41;;;;;;;;;;;27.80;55.50;;;;;;5106104;28;19953;-77
2021/09/26 07:54:07;;;;;;;;;;;27.70;56.50;;;;;;5106478;28;20384;-78
2021/09/26 07:56:33;;;;;;;;;;;28.00;55.30;;;;;;5107503;28;20449;-78
2021/09/26 07:58:58;;;;;;;;;;;28.20;54.70;;;;;;5105865;28;20007;-78
2021/09/26 08:01:24;;;;;;;;;;;28.30;53.20;;;;;;5107117;28;19908;-78
2021/09/26 08:03:49;;;;;;;;;;;27.80;53.80;;;;;;5107170;28;19903;-78
2021/09/26 08:06:16;;;;;;;;;;;27.20;54.80;;;;;;5106971;28;19907;-77
2021/09/26 08:08:42;;;;;;;;;;;26.60;56.40;;;;;;5107011;28;19913;-78
2021/09/26 08:11:08;;;;;;;;;;;26.80;56.80;;;;;;5107452;28;19908;-78
2021/09/26 08:13:33;;;;;;;;;;;27.20;55.80;;;;;;5106156;28;19919;-78
2021/09/26 08:15:59;;;;;;;;;;;27.60;54.60;;;;;;5107000;28;20691;-79
2021/09/26 08:18:24;;;;;;;;;;;27.70;54.70;;;;;;5105469;28;20299;-78
2021/09/26 08:20:50;;;;;;;;;;;28.20;53.60;;;;;;5107079;28;19919;-77
2021/09/26 08:23:16;;;;;;;;;;;28.60;52.60;;;;;;5105245;28;19908;-78
2021/09/26 08:25:41;;;;;;;;;;;28.70;52.40;;;;;;5105711;28;19915;-78
2021/09/26 08:28:07;;;;;;;;;;;29.10;51.60;;;;;;5106960;28;19961;-78
2021/09/26 08:30:32;;;;;;;;;;;29.20;51.50;;;;;;5105848;28;19927;-78
2021/09/26 08:32:58;;;;;;;;;;;29.30;50.10;;;;;;5107407;28;20237;-77
2021/09/26 08:35:24;;;;;;;;;;;29.30;50.90;;;;;;5106697;28;19975;-79
2021/09/26 08:37:50;;;;;;;;;;;29.90;49.80;;;;;;5107085;28;19915;-78
2021/09/26 08:40:15;;;;;;;;;;;30.10;49.70;;;;;;5106570;28;19908;-79
2021/09/26 08:42:41;;;;;;;;;;;30.30;48.00;;;;;;5107363;28;19904;-79
2021/09/26 08:45:09;;;;;;;;;;;30.30;48.00;;;;;;5106762;28;20676;-79
2021/09/26 08:47:39;;;;;;;;;;;30.40;48.60;;;;;;5107847;28;19908;-79
2021/09/26 08:50:05;;;;;;;;;;;30.70;47.70;;;;;;5109821;28;19912;-79
2021/09/26 08:52:31;;;;;;;;;;;30.60;47.00;;;;;;5111080;28;19907;-78
2021/09/26 08:54:56;;;;;;;;;;;30.50;47.80;;;;;;5111211;28;20371;-80
2021/09/26 08:57:22;;;;;;;;;;;30.80;47.50;;;;;;5109955;28;19911;-78
2021/09/26 08:59:48;;;;;;;;;;;31.10;46.70;;;;;;5110793;28;19904;-78
2021/09/26 09:02:13;;;;;;;;;;;31.40;45.40;;;;;;5109202;28;19904;-78
2021/09/26 09:04:40;;;;;;;;;;;31.20;45.50;;;;;;5111199;28;20080;-77
2021/09/26 09:07:06;;;;;;;;;;;31.20;45.40;;;;;;5111543;28;19960;-76
2021/09/26 09:09:42;;;;;;;;;;;30.80;45.20;;;;;;5109385;28;20044;-77
2021/09/26 09:12:08;;;;;;;;;;;30.60;45.70;;;;;;5110538;28;19914;-77
2021/09/26 09:14:48;;;;;;;;;;;30.80;45.20;;;;;;5110787;28;19915;-77
2021/09/26 09:17:23;;;;;;;;;;;30.70;44.20;;;;;;5110728;28;20288;-77
2021/09/26 09:20:09;;;;;;;;;;;30.40;45.60;;;;;;5109843;28;20002;-81
2021/09/26 09:22:34;;;;;;;;;;;30.20;45.10;;;;;;5109072;28;19914;-82
2021/09/26 09:25:00;;;;;;;;;;;30.20;45.90;;;;;;5109544;28;20299;-78
2021/09/26 09:27:25;;;;;;;;;;;30.30;46.30;;;;;;5108640;28;19911;-81
2021/09/26 09:29:51;;;;;;;;;;;30.50;45.70;;;;;;5110471;28;19914;-81
2021/09/26 09:32:17;;;;;;;;;;;30.50;45.80;;;;;;5109279;28;20002;-81
2021/09/26 09:34:43;;;;;;;;;;;30.70;45.70;;;;;;5109367;28;19904;-81
2021/09/26 09:37:19;;;;;;;;;;;30.80;44.80;;;;;;5109068;28;19915;-82
2021/09/26 09:40:04;;;;;;;;;;;30.80;44.70;;;;;;5108478;28;19968;-80
2021/09/26 09:42:35;;;;;;;;;;;30.60;45.60;;;;;;5108864;28;19908;-79
2021/09/26 09:45:12;;;;;;;;;;;30.50;45.00;;;;;;5109768;28;19922;-80
2021/09/26 09:47:53;;;;;;;;;;;30.70;45.40;;;;;;5110036;28;19957;-78
2021/09/26 09:50:19;;;;;;;;;;;30.70;44.40;;;;;;5108562;28;19915;-80
2021/09/26 09:52:52;;;;;;;;;;;30.60;45.10;;;;;;5108553;28;19912;-79
2021/09/26 09:55:18;;;;;;;;;;;30.70;45.10;;;;;;5110063;28;19959;-79
2021/09/26 09:57:44;;;;;;;;;;;30.90;44.60;;;;;;5109546;28;20364;-80
2021/09/26 10:00:16;;;;;;;;;;;30.50;45.00;;;;;;5108768;28;19908;-80
2021/09/26 10:02:42;;;;;;;;;;;30.50;45.60;;;;;;5108414;28;19904;-80
2021/09/26 10:05:08;;;;;;;;;;;30.60;45.60;;;;;;5109299;28;19992;-80
2021/09/26 10:07:33;;;;;;;;;;;30.50;45.60;;;;;;5108387;28;19912;-81
2021/09/26 10:09:59;;;;;;;;;;;30.40;45.50;;;;;;5108922;28;19961;-81
2021/09/26 10:12:31;;;;;;;;;;;30.40;44.70;;;;;;5108381;28;19922;-82
2021/09/26 10:14:59;;;;;;;;;;;30.70;44.60;;;;;;5108140;28;19903;-81
2021/09/26 10:17:25;;;;;;;;;;;31.00;43.70;;;;;;5109933;28;19915;-81
2021/09/26 10:19:51;;;;;;;;;;;31.10;43.70;;;;;;5108794;28;20396;-81
2021/09/26 10:22:17;;;;;;;;;;;31.00;42.20;;;;;;5109260;28;19912;-80
2021/09/26 10:24:47;;;;;;;;;;;30.90;43.20;;;;;;5109612;28;20576;-81
2021/09/26 10:27:14;;;;;;;;;;;30.40;43.60;;;;;;5109579;28;19911;-81
2021/09/26 10:29:41;;;;;;;;;;;29.80;44.30;;;;;;5107381;28;19910;-80
2021/09/26 10:32:08;;;;;;;;;;;29.30;45.00;;;;;;5107977;28;19912;-81
2021/09/26 10:34:34;;;;;;;;;;;28.90;46.40;;;;;;5109348;28;19918;-80
2021/09/26 10:37:04;;;;;;;;;;;28.70;46.30;;;;;;5107553;28;19907;-80
2021/09/26 10:39:30;;;;;;;;;;;28.20;47.00;;;;;;5108783;28;19911;-81
2021/09/26 10:42:06;;;;;;;;;;;27.60;47.70;;;;;;5108255;28;20659;-80
2021/09/26 10:44:32;;;;;;;;;;;27.20;48.70;;;;;;5109009;28;19911;-81
2021/09/26 10:47:16;;;;;;;;;;;26.80;49.90;;;;;;5109358;28;19911;-81
2021/09/26 10:49:43;;;;;;;;;;;26.60;51.00;;;;;;5106922;28;19912;-81
2021/09/26 10:52:21;;;;;;;;;;;26.50;51.70;;;;;;5109031;28;19908;-81
2021/09/26 10:54:47;;;;;;;;;;;26.40;51.50;;;;;;5109023;28;20416;-81
2021/09/26 10:57:19;;;;;;;;;;;26.40;52.00;;;;;;5108753;28;19988;-81
2021/09/26 10:59:52;;;;;;;;;;;26.30;51.50;;;;;;5107178;28;19923;-80
2021/09/26 11:02:21;;;;;;;;;;;26.20;52.00;;;;;;5108626;28;19914;-81
2021/09/26 11:04:47;;;;;;;;;;;26.20;53.00;;;;;;5108276;28;19976;-80
2021/09/26 11:07:16;;;;;;;;;;;26.10;52.60;;;;;;5109063;28;19958;-81
2021/09/26 11:09:58;;;;;;;;;;;26.10;52.60;;;;;;5108590;28;20379;-82
2021/09/26 11:12:42;;;;;;;;;;;26.00;53.40;;;;;;5108384;28;20289;-79
2021/09/26 11:15:15;;;;;;;;;;;26.10;53.50;;;;;;5108385;28;19946;-82
2021/09/26 11:17:48;;;;;;;;;;;26.20;52.70;;;;;;5107650;28;19903;-80
2021/09/26 11:20:25;;;;;;;;;;;26.10;52.50;;;;;;5106588;28;19912;-79
2021/09/26 11:23:03;;;;;;;;;;;26.10;52.80;;;;;;5106886;28;19911;-81
2021/09/26 11:25:49;;;;;;;;;;;26.00;53.00;;;;;;5107859;28;19956;-81
2021/09/26 11:28:32;;;;;;;;;;;25.90;53.70;;;;;;5106398;28;19908;-80
2021/09/26 11:30:58;;;;;;;;;;;25.80;53.60;;;;;;5107396;28;20323;-81
2021/09/26 11:33:23;;;;;;;;;;;25.80;54.10;;;;;;5106325;28;19908;-82
2021/09/26 11:35:49;;;;;;;;;;;25.80;54.00;;;;;;5105537;28;19908;-81
2021/09/26 11:38:17;;;;;;;;;;;25.90;53.90;;;;;;5106780;28;19918;-82
2021/09/26 11:41:00;;;;;;;;;;;25.90;53.80;;;;;;5107588;28;19926;-82
2021/09/26 11:43:27;;;;;;;;;;;25.90;53.40;;;;;;5107457;28;20627;-82
2021/09/26 11:45:55;;;;;;;;;;;25.90;53.50;;;;;;5106380;28;19939;-82
2021/09/26 11:48:28;;;;;;;;;;;25.90;53.60;;;;;;5107180;28;19915;-82
2021/09/26 11:50:54;;;;;;;;;;;25.80;53.40;;;;;;5107479;28;19907;-81
2021/09/26 11:53:20;;;;;;;;;;;25.70;53.80;;;;;;5106546;28;20428;-80
2021/09/26 11:55:45;;;;;;;;;;;25.70;54.30;;;;;;5107098;28;19908;-82
2021/09/26 11:58:11;;;;;;;;;;;25.60;53.80;;;;;;5107210;28;19964;-80
2021/09/26 12:00:38;;;;;;;;;;;25.50;54.00;;;;;;5106073;28;19914;-79
2021/09/26 12:03:14;;;;;;;;;;;25.40;54.80;;;;;;5107298;28;19903;-78
2021/09/26 12:05:41;;;;;;;;;;;25.50;54.80;;;;;;5107053;28;20016;-81
2021/09/26 12:08:06;;;;;;;;;;;25.60;54.70;;;;;;5107057;28;19908;-80
2021/09/26 12:10:33;;;;;;;;;;;25.60;55.00;;;;;;5107559;28;20626;-79
2021/09/26 12:12:58;;;;;;;;;;;25.60;54.70;;;;;;5105871;28;19908;-80
2021/09/26 12:15:27;;;;;;;;;;;25.60;54.80;;;;;;5107308;28;19942;-79
2021/09/26 12:17:56;;;;;;;;;;;25.80;55.20;;;;;;5105269;28;19907;-81
2021/09/26 12:20:22;;;;;;;;;;;26.00;55.00;;;;;;5106937;28;19918;-81
2021/09/26 12:22:52;;;;;;;;;;;26.00;55.20;;;;;;5106735;28;20427;-81
2021/09/26 12:25:27;;;;;;;;;;;26.20;54.60;;;;;;5107332;28;20318;-81
2021/09/26 12:27:52;;;;;;;;;;;26.30;54.60;;;;;;5106983;28;19907;-81
2021/09/26 12:30:23;;;;;;;;;;;26.40;54.30;;;;;;5107446;28;19908;-81
2021/09/26 12:32:50;;;;;;;;;;;26.50;54.00;;;;;;5105330;28;19907;-80
2021/09/26 12:38:08;;;;;;;5.80;3.30;;;26.60;53.40;;;;;;5083480;28;20389;-80
2021/09/26 12:40:37;;;;;;;14.30;3.10;;;26.70;54.00;;;;;;5082415;28;20119;-81
2021/09/26 12:43:05;;;;;;;6.55;2.70;;;26.70;53.10;;;;;;5083493;28;20039;-80
2021/09/26 12:45:39;;;;;;;4.90;3.00;;;26.70;52.40;;;;;;5083137;28;20103;-79
2021/09/26 12:48:05;;;;;;;5.20;3.33;;;26.60;52.90;;;;;;5083231;28;20157;-80
2021/09/26 12:50:31;;;;;;;8.98;3.15;;;26.60;53.20;;;;;;5082449;28;20028;-79
2021/09/26 12:52:58;;;;;;;5.10;3.05;;;26.60;52.90;;;;;;5083752;28;20047;-80
2021/09/26 12:55:31;;;;;;;4.38;3.00;;;26.50;53.10;;;;;;5084132;28;20024;-80
2021/09/26 12:57:57;;;;;;;5.15;3.22;;;26.50;53.70;;;;;;5083965;28;20032;-81
2021/09/26 13:00:32;;;;;;;8.30;2.58;;;26.50;53.70;;;;;;5081634;28;20074;-80
2021/09/26 13:03:09;;;;;;;6.90;3.03;;;26.60;53.40;;;;;;5083045;28;20055;-80
2021/09/26 13:05:38;;;;;;;17.45;3.15;;;26.60;53.50;;;;;;5083489;28;20087;-80
2021/09/26 13:08:08;;;;;;;6.55;3.05;;;26.60;52.30;;;;;;5083749;28;20024;-80
2021/09/26 13:10:38;;;;;;;4.95;3.13;;;26.60;52.80;;;;;;5083298;28;20099;-80
2021/09/26 13:13:18;;;;;;;3.78;2.67;;;26.50;52.70;;;;;;5082000;28;20035;-78
2021/09/26 13:15:44;;;;;;;4.68;2.95;;;26.50;53.20;;;;;;5083289;28;20052;-80
2021/09/26 13:18:15;;;;;;;8.10;2.88;;;26.50;53.10;;;;;;5082526;28;20028;-79
2021/09/26 13:20:42;;;;;;;5.72;2.92;;;26.50;53.20;;;;;;5082049;28;20032;-79
2021/09/26 13:23:28;;;;;;;14.55;3.60;;;26.50;53.30;;;;;;5083061;28;20036;-79
2021/09/26 13:26:08;;;;;;;3.40;3.10;;;26.60;52.80;;;;;;5082936;28;20024;-78
2021/09/26 13:28:34;;;;;;;5.00;2.95;;;26.40;53.00;;;;;;5082789;28;20040;-78
2021/09/26 13:31:24;;;;;;;9.63;2.88;;;26.30;52.80;;;;;;5082924;28;20032;-79
2021/09/26 13:34:02;;;;;;;4.78;2.88;;;26.30;53.50;;;;;;5082051;28;20024;-78
2021/09/26 13:36:33;;;;;;;5.45;3.45;;;26.40;53.50;;;;;;5081475;28;20160;-80
2021/09/26 13:39:01;;;;;;;5.93;2.75;;;26.20;53.50;;;;;;5082608;28;20063;-79
2021/09/26 13:41:27;;;;;;;7.25;3.15;;;26.20;53.50;;;;;;5082938;28;20031;-77
2021/09/26 13:44:24;;;;;;;4.03;2.72;;;26.10;53.70;;;;;;5082126;28;20028;-79
2021/09/26 13:46:50;;;;;;;18.58;3.17;;;26.10;53.90;;;;;;5080697;28;20024;-79
2021/09/26 13:49:17;;;;;;;11.70;2.30;;;26.00;53.60;;;;;;5067901;28;20028;-79
2021/09/26 13:51:45;;;;;;;4.47;2.53;;;26.00;53.90;;;;;;5067095;28;20020;-79
2021/09/26 13:54:12;;;;;;;11.90;3.00;;;26.00;54.00;;;;;;5068230;28;20731;-78
2021/09/26 13:56:38;;;;;;;7.65;2.90;;;26.10;53.20;;;;;;5066484;28;20516;-76
2021/09/26 13:59:05;;;;;;;6.53;2.70;;;26.00;53.70;;;;;;5066885;28;20028;-82
2021/09/26 14:01:31;;;;;;;6.40;2.88;;;26.00;53.50;;;;;;5067933;28;20504;-77
2021/09/26 14:03:57;;;;;;;14.63;3.35;;;25.80;53.80;;;;;;5068685;28;20028;-79
2021/09/26 14:06:23;;;;;;;8.35;2.63;;;25.80;54.10;;;;;;5067139;28;20028;-79
2021/09/26 14:08:50;;;;;;;5.80;2.50;;;25.80;53.80;;;;;;5068744;28;20107;-78
2021/09/26 14:11:17;;;;;;;6.70;2.55;;;25.60;53.80;;;;;;5067515;28;20055;-77